Saturday, August 18, 2018, 3:16 AM EDT
Back to Local

KHUL, Houlton Int'l Airport

Location: Houlton, ME, United States Lat: 46.117
Local Time: 3:16 AM EDT ( 7:16 GMT) Lon: -67.8
Time Zone: US/Eastern Elev: 492 ft

Show me the last for .
Show Decoded

2018-08-18 02:53 METAR KHUL 180653Z AUTO 12005KT 9SM OVC008 16/16 A2984 RMK AO2 RAE11B36E50 CIG
                 006V012 SLP103 P0002 T01610161 =
2018-08-18 02:20 METAR KHUL 180620Z AUTO 10007KT 10SM BKN008 BKN012 OVC025 16/16 A2984 RMK AO2
                 RAE11 P0001 T01610161 =
2018-08-18 02:06 METAR KHUL 180606Z AUTO 13007KT 7SM -RA SCT010 BKN023 OVC038 16/16 A2985 RMK AO2
                 P0001 T01610161 =
2018-08-18 01:58 METAR KHUL 180558Z AUTO 13005KT 2SM RA BR FEW008 BKN023 OVC036 16/16 A2986 RMK
                 AO2 P0001 T01610161 =
2018-08-18 01:53 METAR KHUL 180553Z AUTO 14004KT 1 1/4SM +RA BR FEW008 BKN023 OVC036 16/16 A2986
                 RMK AO2 RAE20B24 SLP113 P0026 60062 T01610161 10194 20161 58020 =
2018-08-18 01:43 METAR KHUL 180543Z AUTO 14006KT 1SM +RA BR FEW008 BKN024 OVC036 16/16 A2986 RMK
                 AO2 RAE20B24 P0018 T01610161 =
2018-08-18 01:34 METAR KHUL 180534Z AUTO 00000KT 1 3/4SM +RA BR FEW007 BKN027 OVC038 16/16 A2987
                 RMK AO2 VIS 3/4V4 RAE20B24 P0007 T01610161 =
2018-08-18 01:20 METAR KHUL 180520Z AUTO 15006KT 10SM SCT007 BKN026 OVC031 16/16 A2988 RMK AO2
                 RAE20 P0001 T01610161 =
2018-08-18 01:12 METAR KHUL 180512Z AUTO 14006KT 7SM -RA SCT008 BKN031 OVC038 17/16 A2988 RMK AO2
                 P0001 T01670161 =
2018-08-18 00:53 METAR KHUL 180453Z AUTO 15004KT 4SM -RA BR BKN008 BKN020 OVC039 17/17 A2989 RMK
                 AO2 SLP120 P0011 T01670167 402390067 =
2018-08-18 00:36 METAR KHUL 180436Z AUTO 18003KT 2SM RA BR SCT008 BKN020 OVC027 17/17 A2990 RMK
                 AO2 P0008 T01670167 =
2018-08-18 00:27 METAR KHUL 180427Z AUTO 19004KT 1 3/4SM +RA BR SCT010 BKN020 OVC034 17/17 A2991
                 RMK AO2 P0007 T01670167 =
2018-08-18 00:17 METAR KHUL 180417Z AUTO 15005KT 4SM -RA BR FEW012 BKN027 OVC033 17/17 A2990 RMK
                 AO2 P0003 T01670167 =
2018-08-18 00:05 METAR KHUL 180405Z AUTO 19004KT 2SM -RA BR SCT012 SCT026 OVC033 17/17 A2991 RMK
                 AO2 P0002 T01670167 =
2018-08-17 23:53 METAR KHUL 180353Z AUTO 18005KT 1 1/2SM RA BR FEW012 BKN026 OVC031 17/17 A2992
                 RMK AO2 RAB16 SLP130 P0013 T01720172 =
2018-08-17 23:43 METAR KHUL 180343Z AUTO 19004KT 1 1/4SM RA BR FEW012 BKN029 OVC034 17/17 A2992
                 RMK AO2 RAB16 P0009 T01720172 =
2018-08-17 23:36 METAR KHUL 180336Z AUTO VRB04KT 1 3/4SM RA BR OVC029 17/17 A2992 RMK AO2 RAB16
                 P0005 T01720172 =
2018-08-17 23:20 METAR KHUL 180320Z AUTO VRB03KT 5SM -RA BR BKN028 BKN036 OVC050 18/17 A2993 RMK
                 AO2 RAB16 P0001 T01780172 =
2018-08-17 22:53 METAR KHUL 180253Z AUTO 13005KT 10SM FEW035 BKN050 OVC060 18/17 A2992 RMK AO2
                 RAE46 SLP133 P0004 60012 T01780172 58005 =
2018-08-17 22:01 METAR KHUL 180201Z AUTO 17005KT 3SM -RA BR BKN055 BKN080 OVC100 18/18 A2994 RMK
                 AO2 P0001 T01780178 =
2018-08-17 21:53 METAR KHUL 180153Z AUTO 17004KT 2SM -RA BR SCT048 BKN055 OVC100 18/18 A2994 RMK
                 AO2 SLP138 P0008 T01780178 =
2018-08-17 21:45 METAR KHUL 180145Z AUTO 17006KT 1 3/4SM +RA BR FEW042 SCT075 OVC100 18/18 A2994
                 RMK AO2 P0007 T01780178 =
2018-08-17 20:53 METAR KHUL 180053Z AUTO 18005KT 10SM -RA FEW110 19/17 A2995 RMK AO2 RAB44 SLP141
                 P0000 T01940167 =
2018-08-17 19:53 METAR KHUL 172353Z AUTO 00000KT 10SM BKN080 19/17 A2994 RMK AO2 SLP139 T01940167
                 10239 20183 56009 =
2018-08-17 18:53 METAR KHUL 172253Z AUTO 00000KT 10SM CLR 19/17 A2994 RMK AO2 SLP140 T01940172 =
2018-08-17 17:53 METAR KHUL 172153Z AUTO 19003KT 10SM CLR 22/16 A2995 RMK AO2 SLP144 T02220156 =
2018-08-17 16:53 METAR KHUL 172053Z AUTO 21010KT 10SM FEW043 24/16 A2997 RMK AO2 SLP148 T02390156
                 56020 =
2018-08-17 15:53 METAR KHUL 171953Z AUTO 21008G15KT 10SM FEW043 23/15 A2998 RMK AO2 SLP153
                 T02330150 =
2018-08-17 14:53 METAR KHUL 171853Z AUTO VRB05KT 10SM BKN042 23/14 A3000 RMK AO2 SLP161 T02330144
                 =
2018-08-17 13:53 METAR KHUL 171753Z AUTO 21008KT 10SM SCT041 23/14 A3003 RMK AO2 SLP168 T02280144
                 10233 20133 56018 =
2018-08-17 12:53 METAR KHUL 171653Z AUTO 23007KT 10SM BKN042 22/14 A3004 RMK AO2 SLP174 T02220144
                 $ =
2018-08-17 11:53 METAR KHUL 171553Z AUTO VRB06KT 10SM SCT038 22/14 A3006 RMK AO2 SLP180 T02170139
                 $ =
2018-08-17 10:53 METAR KHUL 171453Z AUTO VRB04KT 10SM FEW026 20/15 A3008 RMK AO2 SLP187 T02000150
                 58015 =
2018-08-17 09:53 METAR KHUL 171353Z AUTO VRB04KT 10SM CLR 18/15 A3010 RMK AO2 SLP193 T01830150 =
2018-08-17 08:53 METAR KHUL 171253Z AUTO 00000KT 10SM CLR 17/14 A3012 RMK AO2 SLP200 T01670144 =
2018-08-17 07:53 METAR KHUL 171153Z AUTO 00000KT 10SM CLR 13/12 A3012 RMK AO2 SLP202 T01280122
                 10128 20067 52011 =
2018-08-17 06:53 METAR KHUL 171053Z AUTO 00000KT 10SM CLR 10/09 A3012 RMK AO2 SLP199 T01000094 =
2018-08-17 05:53 METAR KHUL 170953Z AUTO 00000KT 9SM CLR 07/07 A3010 RMK AO2 SLP194 T00670067 =
2018-08-17 04:53 METAR KHUL 170853Z AUTO 00000KT 10SM FEW001 07/07 A3009 RMK AO2 SLP190 T00720072
                 50002 =
2018-08-17 04:04 METAR KHUL 170804Z AUTO 00000KT 9SM FEW002 07/07 A3009 RMK AO2 T00720072 =
2018-08-17 03:53 METAR KHUL 170753Z AUTO 00000KT 10SM CLR 08/08 A3009 RMK AO2 SLP191 T00830083 =

Support USWX by starting your Amazon purchase here.